sensor_id;sensor_type;location;lat;lon;timestamp;P1;durP1;ratioP1;P2;durP2;ratioP2
53714;SDS011;39608;55.630;37.864;2023-04-01T00:03:57;60.47;;;22.88;;
53714;SDS011;39608;55.630;37.864;2023-04-01T00:09:03;94.78;;;35.25;;
53714;SDS011;39608;55.630;37.864;2023-04-01T00:14:05;57.20;;;22.75;;
53714;SDS011;39608;55.630;37.864;2023-04-01T00:19:08;40.28;;;19.75;;
53714;SDS011;39608;55.630;37.864;2023-04-01T00:24:12;28.52;;;13.10;;
53714;SDS011;39608;55.630;37.864;2023-04-01T00:29:13;18.90;;;10.70;;
53714;SDS011;39608;55.630;37.864;2023-04-01T00:34:16;17.20;;;9.82;;
53714;SDS011;39608;55.630;37.864;2023-04-01T00:39:19;12.70;;;8.93;;
53714;SDS011;39608;55.630;37.864;2023-04-01T00:44:22;16.60;;;9.63;;
53714;SDS011;39608;55.630;37.864;2023-04-01T00:49:27;15.23;;;9.77;;
53714;SDS011;39608;55.630;37.864;2023-04-01T00:54:33;19.70;;;10.95;;
53714;SDS011;39608;55.630;37.864;2023-04-01T00:59:38;16.38;;;10.50;;
53714;SDS011;39608;55.630;37.864;2023-04-01T01:04:44;15.93;;;10.10;;
53714;SDS011;39608;55.630;37.864;2023-04-01T01:09:50;19.55;;;9.35;;
53714;SDS011;39608;55.630;37.864;2023-04-01T01:15:02;12.93;;;9.07;;
53714;SDS011;39608;55.630;37.864;2023-04-01T01:26:06;12.93;;;8.63;;
53714;SDS011;39608;55.630;37.864;2023-04-01T01:31:19;13.35;;;7.65;;
53714;SDS011;39608;55.630;37.864;2023-04-01T01:36:28;13.95;;;8.55;;
53714;SDS011;39608;55.630;37.864;2023-04-01T01:41:34;13.82;;;8.40;;
53714;SDS011;39608;55.630;37.864;2023-04-01T01:46:40;15.95;;;8.90;;
53714;SDS011;39608;55.630;37.864;2023-04-01T01:51:45;22.52;;;9.27;;
53714;SDS011;39608;55.630;37.864;2023-04-01T01:56:48;12.70;;;8.35;;
53714;SDS011;39608;55.630;37.864;2023-04-01T02:01:55;15.48;;;9.18;;
53714;SDS011;39608;55.630;37.864;2023-04-01T02:07:02;12.75;;;9.35;;
53714;SDS011;39608;55.630;37.864;2023-04-01T02:12:06;13.88;;;8.18;;
53714;SDS011;39608;55.630;37.864;2023-04-01T02:17:12;13.10;;;8.38;;
53714;SDS011;39608;55.630;37.864;2023-04-01T02:22:20;11.27;;;7.40;;
53714;SDS011;39608;55.630;37.864;2023-04-01T02:32:26;11.13;;;6.90;;
53714;SDS011;39608;55.630;37.864;2023-04-01T02:37:31;9.50;;;6.82;;
53714;SDS011;39608;55.630;37.864;2023-04-01T02:42:33;9.15;;;6.60;;
53714;SDS011;39608;55.630;37.864;2023-04-01T02:47:35;12.70;;;7.22;;
53714;SDS011;39608;55.630;37.864;2023-04-01T02:52:39;11.18;;;7.78;;
53714;SDS011;39608;55.630;37.864;2023-04-01T02:57:41;14.10;;;7.68;;
53714;SDS011;39608;55.630;37.864;2023-04-01T03:02:43;12.15;;;8.00;;
53714;SDS011;39608;55.630;37.864;2023-04-01T03:07:46;13.20;;;8.02;;
53714;SDS011;39608;55.630;37.864;2023-04-01T03:12:48;10.35;;;7.00;;
53714;SDS011;39608;55.630;37.864;2023-04-01T03:17:50;14.05;;;7.25;;
53714;SDS011;39608;55.630;37.864;2023-04-01T03:22:54;13.35;;;7.55;;
53714;SDS011;39608;55.630;37.864;2023-04-01T03:27:56;14.02;;;7.40;;
53714;SDS011;39608;55.630;37.864;2023-04-01T03:32:59;8.32;;;5.88;;
53714;SDS011;39608;55.630;37.864;2023-04-01T03:38:03;17.13;;;7.57;;
53714;SDS011;39608;55.630;37.864;2023-04-01T03:43:05;13.80;;;7.43;;
53714;SDS011;39608;55.630;37.864;2023-04-01T03:48:08;11.43;;;6.93;;
53714;SDS011;39608;55.630;37.864;2023-04-01T03:53:12;13.10;;;8.13;;
53714;SDS011;39608;55.630;37.864;2023-04-01T03:58:14;13.10;;;7.68;;
53714;SDS011;39608;55.630;37.864;2023-04-01T04:03:16;11.50;;;7.43;;
53714;SDS011;39608;55.630;37.864;2023-04-01T04:08:19;12.27;;;7.88;;
53714;SDS011;39608;55.630;37.864;2023-04-01T04:13:21;11.95;;;7.53;;
53714;SDS011;39608;55.630;37.864;2023-04-01T04:18:23;11.15;;;7.45;;
53714;SDS011;39608;55.630;37.864;2023-04-01T04:23:27;11.93;;;7.38;;
53714;SDS011;39608;55.630;37.864;2023-04-01T04:28:30;11.75;;;7.53;;
53714;SDS011;39608;55.630;37.864;2023-04-01T04:33:32;10.80;;;6.55;;
53714;SDS011;39608;55.630;37.864;2023-04-01T04:38:36;11.45;;;7.28;;
53714;SDS011;39608;55.630;37.864;2023-04-01T04:43:38;11.95;;;7.15;;
53714;SDS011;39608;55.630;37.864;2023-04-01T04:48:40;13.38;;;7.18;;
53714;SDS011;39608;55.630;37.864;2023-04-01T04:53:45;11.30;;;7.15;;
53714;SDS011;39608;55.630;37.864;2023-04-01T04:58:48;13.15;;;6.85;;
53714;SDS011;39608;55.630;37.864;2023-04-01T05:03:50;11.32;;;7.43;;
53714;SDS011;39608;55.630;37.864;2023-04-01T05:08:54;13.05;;;7.32;;
53714;SDS011;39608;55.630;37.864;2023-04-01T05:13:58;11.27;;;7.18;;
53714;SDS011;39608;55.630;37.864;2023-04-01T05:19:00;11.77;;;7.15;;
53714;SDS011;39608;55.630;37.864;2023-04-01T05:24:03;14.52;;;7.80;;
53714;SDS011;39608;55.630;37.864;2023-04-01T05:29:09;14.95;;;8.48;;
53714;SDS011;39608;55.630;37.864;2023-04-01T05:34:11;14.82;;;8.52;;
53714;SDS011;39608;55.630;37.864;2023-04-01T05:39:15;14.35;;;9.32;;
53714;SDS011;39608;55.630;37.864;2023-04-01T05:44:18;17.70;;;10.60;;
53714;SDS011;39608;55.630;37.864;2023-04-01T05:49:20;17.83;;;10.50;;
53714;SDS011;39608;55.630;37.864;2023-04-01T05:54:23;17.08;;;9.90;;
53714;SDS011;39608;55.630;37.864;2023-04-01T05:59:25;16.65;;;9.23;;
53714;SDS011;39608;55.630;37.864;2023-04-01T06:04:28;14.05;;;9.50;;
53714;SDS011;39608;55.630;37.864;2023-04-01T06:09:38;14.80;;;9.23;;
53714;SDS011;39608;55.630;37.864;2023-04-01T06:14:42;15.60;;;9.13;;
53714;SDS011;39608;55.630;37.864;2023-04-01T06:19:54;17.42;;;9.38;;
53714;SDS011;39608;55.630;37.864;2023-04-01T06:25:10;18.00;;;10.60;;
53714;SDS011;39608;55.630;37.864;2023-04-01T06:30:37;23.10;;;10.38;;
53714;SDS011;39608;55.630;37.864;2023-04-01T06:41:11;32.05;;;12.35;;
53714;SDS011;39608;55.630;37.864;2023-04-01T06:46:27;27.48;;;12.55;;
53714;SDS011;39608;55.630;37.864;2023-04-01T06:51:39;26.52;;;13.85;;
53714;SDS011;39608;55.630;37.864;2023-04-01T06:56:53;32.28;;;15.48;;
53714;SDS011;39608;55.630;37.864;2023-04-01T07:02:04;37.47;;;15.13;;
53714;SDS011;39608;55.630;37.864;2023-04-01T07:07:15;42.65;;;18.05;;
53714;SDS011;39608;55.630;37.864;2023-04-01T07:12:29;33.97;;;16.38;;
53714;SDS011;39608;55.630;37.864;2023-04-01T07:17:43;35.45;;;17.55;;
53714;SDS011;39608;55.630;37.864;2023-04-01T07:22:49;35.15;;;17.17;;
53714;SDS011;39608;55.630;37.864;2023-04-01T07:27:57;31.05;;;16.70;;
53714;SDS011;39608;55.630;37.864;2023-04-01T07:33:04;34.30;;;17.77;;
53714;SDS011;39608;55.630;37.864;2023-04-01T07:38:14;32.50;;;15.18;;
53714;SDS011;39608;55.630;37.864;2023-04-01T07:49:02;19.13;;;11.68;;
53714;SDS011;39608;55.630;37.864;2023-04-01T07:54:09;16.27;;;10.65;;
53714;SDS011;39608;55.630;37.864;2023-04-01T07:59:20;15.88;;;10.30;;
53714;SDS011;39608;55.630;37.864;2023-04-01T08:04:33;16.63;;;10.77;;
53714;SDS011;39608;55.630;37.864;2023-04-01T08:14:56;18.23;;;9.98;;
53714;SDS011;39608;55.630;37.864;2023-04-01T08:20:11;18.23;;;10.98;;
53714;SDS011;39608;55.630;37.864;2023-04-01T08:25:20;16.38;;;10.70;;
53714;SDS011;39608;55.630;37.864;2023-04-01T08:30:28;16.30;;;10.77;;
53714;SDS011;39608;55.630;37.864;2023-04-01T08:35:41;14.80;;;10.50;;
53714;SDS011;39608;55.630;37.864;2023-04-01T08:46:38;17.55;;;11.32;;
53714;SDS011;39608;55.630;37.864;2023-04-01T08:52:10;16.88;;;11.27;;
53714;SDS011;39608;55.630;37.864;2023-04-01T08:57:21;15.82;;;11.68;;
53714;SDS011;39608;55.630;37.864;2023-04-01T09:02:42;16.63;;;11.73;;
53714;SDS011;39608;55.630;37.864;2023-04-01T09:07:57;17.75;;;12.20;;
53714;SDS011;39608;55.630;37.864;2023-04-01T09:24:30;16.27;;;12.38;;
53714;SDS011;39608;55.630;37.864;2023-04-01T09:29:47;14.95;;;11.50;;
53714;SDS011;39608;55.630;37.864;2023-04-01T09:35:18;15.70;;;10.98;;
53714;SDS011;39608;55.630;37.864;2023-04-01T09:40:24;17.67;;;10.80;;
53714;SDS011;39608;55.630;37.864;2023-04-01T09:45:39;12.90;;;9.43;;
53714;SDS011;39608;55.630;37.864;2023-04-01T09:50:51;11.70;;;9.05;;
53714;SDS011;39608;55.630;37.864;2023-04-01T10:01:54;11.23;;;8.48;;
53714;SDS011;39608;55.630;37.864;2023-04-01T10:13:05;10.80;;;7.97;;
53714;SDS011;39608;55.630;37.864;2023-04-01T10:24:24;16.10;;;7.17;;
53714;SDS011;39608;55.630;37.864;2023-04-01T10:41:20;6.80;;;5.53;;
53714;SDS011;39608;55.630;37.864;2023-04-01T10:47:19;8.80;;;5.63;;
53714;SDS011;39608;55.630;37.864;2023-04-01T11:04:35;11.45;;;5.47;;
53714;SDS011;39608;55.630;37.864;2023-04-01T11:10:12;12.63;;;5.93;;
53714;SDS011;39608;55.630;37.864;2023-04-01T11:27:25;7.97;;;4.63;;
53714;SDS011;39608;55.630;37.864;2023-04-01T11:32:44;10.68;;;4.82;;
53714;SDS011;39608;55.630;37.864;2023-04-01T11:37:55;11.82;;;4.78;;
53714;SDS011;39608;55.630;37.864;2023-04-01T11:43:08;12.35;;;4.93;;
53714;SDS011;39608;55.630;37.864;2023-04-01T11:48:20;8.25;;;4.78;;
53714;SDS011;39608;55.630;37.864;2023-04-01T11:53:36;12.27;;;5.10;;
53714;SDS011;39608;55.630;37.864;2023-04-01T12:04:37;8.73;;;5.70;;
53714;SDS011;39608;55.630;37.864;2023-04-01T12:10:00;12.52;;;5.32;;
53714;SDS011;39608;55.630;37.864;2023-04-01T12:15:13;9.05;;;5.20;;
53714;SDS011;39608;55.630;37.864;2023-04-01T12:20:26;18.37;;;5.33;;
53714;SDS011;39608;55.630;37.864;2023-04-01T12:25:45;10.23;;;5.68;;
53714;SDS011;39608;55.630;37.864;2023-04-01T12:31:05;9.80;;;5.60;;
53714;SDS011;39608;55.630;37.864;2023-04-01T12:41:32;10.90;;;5.32;;
53714;SDS011;39608;55.630;37.864;2023-04-01T12:47:00;8.85;;;5.55;;
53714;SDS011;39608;55.630;37.864;2023-04-01T12:52:23;10.43;;;5.85;;
53714;SDS011;39608;55.630;37.864;2023-04-01T12:57:41;9.13;;;5.55;;
53714;SDS011;39608;55.630;37.864;2023-04-01T13:03:27;12.68;;;5.20;;
53714;SDS011;39608;55.630;37.864;2023-04-01T13:08:48;6.63;;;4.50;;
53714;SDS011;39608;55.630;37.864;2023-04-01T13:19:40;10.95;;;4.90;;
53714;SDS011;39608;55.630;37.864;2023-04-01T13:24:51;9.07;;;5.00;;
53714;SDS011;39608;55.630;37.864;2023-04-01T13:30:11;5.88;;;3.83;;
53714;SDS011;39608;55.630;37.864;2023-04-01T13:35:31;6.60;;;3.85;;
53714;SDS011;39608;55.630;37.864;2023-04-01T13:40:45;11.98;;;4.05;;
53714;SDS011;39608;55.630;37.864;2023-04-01T13:46:06;7.28;;;4.38;;
53714;SDS011;39608;55.630;37.864;2023-04-01T13:51:26;7.43;;;4.38;;
53714;SDS011;39608;55.630;37.864;2023-04-01T13:56:43;8.57;;;4.32;;
53714;SDS011;39608;55.630;37.864;2023-04-01T14:02:00;11.00;;;4.75;;
53714;SDS011;39608;55.630;37.864;2023-04-01T14:07:35;7.22;;;4.40;;
53714;SDS011;39608;55.630;37.864;2023-04-01T14:12:50;7.40;;;4.63;;
53714;SDS011;39608;55.630;37.864;2023-04-01T14:18:07;9.98;;;4.93;;
53714;SDS011;39608;55.630;37.864;2023-04-01T14:23:37;7.57;;;5.10;;
53714;SDS011;39608;55.630;37.864;2023-04-01T14:28:55;16.73;;;5.72;;
53714;SDS011;39608;55.630;37.864;2023-04-01T14:34:15;12.00;;;5.80;;
53714;SDS011;39608;55.630;37.864;2023-04-01T14:39:33;10.43;;;6.15;;
53714;SDS011;39608;55.630;37.864;2023-04-01T14:44:50;10.98;;;6.15;;
53714;SDS011;39608;55.630;37.864;2023-04-01T14:50:14;14.37;;;7.77;;
53714;SDS011;39608;55.630;37.864;2023-04-01T14:55:31;14.90;;;8.88;;
53714;SDS011;39608;55.630;37.864;2023-04-01T15:06:25;9.30;;;7.15;;
53714;SDS011;39608;55.630;37.864;2023-04-01T15:12:01;12.45;;;8.27;;
53714;SDS011;39608;55.630;37.864;2023-04-01T15:17:29;13.88;;;7.90;;
53714;SDS011;39608;55.630;37.864;2023-04-01T15:22:48;11.55;;;8.88;;
53714;SDS011;39608;55.630;37.864;2023-04-01T15:28:10;14.20;;;8.68;;
53714;SDS011;39608;55.630;37.864;2023-04-01T15:33:28;11.77;;;8.88;;
53714;SDS011;39608;55.630;37.864;2023-04-01T15:38:42;14.20;;;8.77;;
53714;SDS011;39608;55.630;37.864;2023-04-01T15:43:52;12.90;;;9.95;;
53714;SDS011;39608;55.630;37.864;2023-04-01T15:48:57;15.75;;;10.05;;
53714;SDS011;39608;55.630;37.864;2023-04-01T16:00:13;23.80;;;9.02;;
53714;SDS011;39608;55.630;37.864;2023-04-01T16:05:32;11.55;;;8.32;;
53714;SDS011;39608;55.630;37.864;2023-04-01T16:10:51;14.13;;;8.95;;
53714;SDS011;39608;55.630;37.864;2023-04-01T16:16:09;11.93;;;8.15;;
53714;SDS011;39608;55.630;37.864;2023-04-01T16:21:27;9.48;;;6.53;;
53714;SDS011;39608;55.630;37.864;2023-04-01T16:26:39;16.00;;;8.23;;
53714;SDS011;39608;55.630;37.864;2023-04-01T16:31:50;15.85;;;9.60;;
53714;SDS011;39608;55.630;37.864;2023-04-01T16:37:00;12.63;;;9.25;;
53714;SDS011;39608;55.630;37.864;2023-04-01T16:42:17;14.65;;;8.40;;
53714;SDS011;39608;55.630;37.864;2023-04-01T16:47:29;12.70;;;8.25;;
53714;SDS011;39608;55.630;37.864;2023-04-01T16:52:42;11.95;;;6.88;;
53714;SDS011;39608;55.630;37.864;2023-04-01T16:57:59;11.10;;;8.00;;
53714;SDS011;39608;55.630;37.864;2023-04-01T17:03:11;11.75;;;7.95;;
53714;SDS011;39608;55.630;37.864;2023-04-01T17:08:21;11.93;;;7.95;;
53714;SDS011;39608;55.630;37.864;2023-04-01T17:13:37;11.77;;;7.20;;
53714;SDS011;39608;55.630;37.864;2023-04-01T17:18:50;10.00;;;6.50;;
53714;SDS011;39608;55.630;37.864;2023-04-01T17:24:00;11.95;;;6.65;;
53714;SDS011;39608;55.630;37.864;2023-04-01T17:29:20;12.02;;;6.15;;
53714;SDS011;39608;55.630;37.864;2023-04-01T17:34:42;11.40;;;7.15;;
53714;SDS011;39608;55.630;37.864;2023-04-01T17:39:58;10.43;;;6.20;;
53714;SDS011;39608;55.630;37.864;2023-04-01T17:45:17;11.55;;;6.45;;
53714;SDS011;39608;55.630;37.864;2023-04-01T17:50:25;13.50;;;7.50;;
53714;SDS011;39608;55.630;37.864;2023-04-01T17:55:49;11.27;;;7.07;;
53714;SDS011;39608;55.630;37.864;2023-04-01T18:01:03;9.52;;;6.20;;
53714;SDS011;39608;55.630;37.864;2023-04-01T18:06:17;10.20;;;6.50;;
53714;SDS011;39608;55.630;37.864;2023-04-01T18:11:25;9.35;;;6.38;;
53714;SDS011;39608;55.630;37.864;2023-04-01T18:16:42;9.63;;;6.90;;
53714;SDS011;39608;55.630;37.864;2023-04-01T18:21:56;16.65;;;7.30;;
53714;SDS011;39608;55.630;37.864;2023-04-01T18:27:06;12.90;;;7.65;;
53714;SDS011;39608;55.630;37.864;2023-04-01T18:32:15;11.43;;;7.53;;
53714;SDS011;39608;55.630;37.864;2023-04-01T18:37:28;10.68;;;7.68;;
53714;SDS011;39608;55.630;37.864;2023-04-01T18:42:38;16.27;;;9.43;;
53714;SDS011;39608;55.630;37.864;2023-04-01T18:47:49;12.45;;;8.32;;
53714;SDS011;39608;55.630;37.864;2023-04-01T18:53:09;15.93;;;8.68;;
53714;SDS011;39608;55.630;37.864;2023-04-01T18:58:21;17.45;;;8.40;;
53714;SDS011;39608;55.630;37.864;2023-04-01T19:03:28;11.80;;;7.88;;
53714;SDS011;39608;55.630;37.864;2023-04-01T19:08:38;14.93;;;8.68;;
53714;SDS011;39608;55.630;37.864;2023-04-01T19:13:44;14.35;;;8.50;;
53714;SDS011;39608;55.630;37.864;2023-04-01T19:18:57;14.95;;;8.55;;
53714;SDS011;39608;55.630;37.864;2023-04-01T19:29:58;12.23;;;8.27;;
53714;SDS011;39608;55.630;37.864;2023-04-01T19:35:17;12.63;;;8.18;;
53714;SDS011;39608;55.630;37.864;2023-04-01T19:40:35;13.18;;;8.77;;
53714;SDS011;39608;55.630;37.864;2023-04-01T19:45:45;14.48;;;8.60;;
53714;SDS011;39608;55.630;37.864;2023-04-01T19:50:55;15.45;;;9.02;;
53714;SDS011;39608;55.630;37.864;2023-04-01T20:01:08;14.57;;;8.63;;
53714;SDS011;39608;55.630;37.864;2023-04-01T20:06:20;12.45;;;8.85;;
53714;SDS011;39608;55.630;37.864;2023-04-01T20:11:37;16.10;;;9.77;;
53714;SDS011;39608;55.630;37.864;2023-04-01T20:16:56;13.57;;;8.35;;
53714;SDS011;39608;55.630;37.864;2023-04-01T20:22:04;15.25;;;8.25;;
53714;SDS011;39608;55.630;37.864;2023-04-01T20:27:16;12.45;;;8.00;;
53714;SDS011;39608;55.630;37.864;2023-04-01T20:32:27;13.15;;;8.48;;
53714;SDS011;39608;55.630;37.864;2023-04-01T20:37:42;14.70;;;8.25;;
53714;SDS011;39608;55.630;37.864;2023-04-01T20:42:57;13.48;;;8.35;;
53714;SDS011;39608;55.630;37.864;2023-04-01T20:54:00;14.88;;;9.05;;
53714;SDS011;39608;55.630;37.864;2023-04-01T20:59:24;11.85;;;7.75;;
53714;SDS011;39608;55.630;37.864;2023-04-01T21:04:50;11.13;;;7.82;;
53714;SDS011;39608;55.630;37.864;2023-04-01T21:10:20;16.10;;;9.20;;
53714;SDS011;39608;55.630;37.864;2023-04-01T21:15:44;12.80;;;7.70;;
53714;SDS011;39608;55.630;37.864;2023-04-01T21:20:56;13.20;;;8.43;;
53714;SDS011;39608;55.630;37.864;2023-04-01T21:26:19;12.98;;;7.82;;
53714;SDS011;39608;55.630;37.864;2023-04-01T21:37:04;12.55;;;8.98;;
53714;SDS011;39608;55.630;37.864;2023-04-01T21:42:26;14.70;;;9.95;;
53714;SDS011;39608;55.630;37.864;2023-04-01T22:04:52;19.05;;;9.77;;
53714;SDS011;39608;55.630;37.864;2023-04-01T22:10:00;12.45;;;8.55;;
53714;SDS011;39608;55.630;37.864;2023-04-01T22:15:15;13.68;;;9.48;;
53714;SDS011;39608;55.630;37.864;2023-04-01T22:20:25;16.98;;;9.40;;
53714;SDS011;39608;55.630;37.864;2023-04-01T22:25:36;15.50;;;9.45;;
53714;SDS011;39608;55.630;37.864;2023-04-01T22:30:43;15.98;;;10.13;;
53714;SDS011;39608;55.630;37.864;2023-04-01T22:35:53;13.45;;;8.82;;
53714;SDS011;39608;55.630;37.864;2023-04-01T22:41:02;13.60;;;9.18;;
53714;SDS011;39608;55.630;37.864;2023-04-01T22:46:15;17.42;;;9.73;;
53714;SDS011;39608;55.630;37.864;2023-04-01T22:51:40;16.63;;;9.60;;
53714;SDS011;39608;55.630;37.864;2023-04-01T22:56:47;19.00;;;10.32;;
53714;SDS011;39608;55.630;37.864;2023-04-01T23:01:54;17.03;;;9.77;;
53714;SDS011;39608;55.630;37.864;2023-04-01T23:07:04;17.58;;;9.43;;
53714;SDS011;39608;55.630;37.864;2023-04-01T23:12:20;19.60;;;11.75;;
53714;SDS011;39608;55.630;37.864;2023-04-01T23:17:39;20.70;;;10.57;;
53714;SDS011;39608;55.630;37.864;2023-04-01T23:22:53;21.65;;;11.02;;
53714;SDS011;39608;55.630;37.864;2023-04-01T23:28:17;19.55;;;11.48;;
53714;SDS011;39608;55.630;37.864;2023-04-01T23:33:29;23.52;;;12.27;;
53714;SDS011;39608;55.630;37.864;2023-04-01T23:38:37;21.92;;;12.40;;
53714;SDS011;39608;55.630;37.864;2023-04-01T23:43:42;20.08;;;10.63;;
53714;SDS011;39608;55.630;37.864;2023-04-01T23:48:45;23.63;;;12.70;;
53714;SDS011;39608;55.630;37.864;2023-04-01T23:53:55;21.95;;;13.35;;
53714;SDS011;39608;55.630;37.864;2023-04-01T23:58:58;23.70;;;13.30;;
